createdAt,value
2018-10-19T00:02:00.198Z,12.51
2018-10-19T00:07:04.213Z,12.55
2018-10-19T00:12:08.265Z,12.59
2018-10-19T00:17:12.367Z,12.47
2018-10-19T00:22:16.370Z,12.48
2018-10-19T00:27:20.633Z,12.45
2018-10-19T00:32:24.623Z,12.42
2018-10-19T00:37:28.603Z,12.43
2018-10-19T00:42:32.592Z,12.42
2018-10-19T00:47:36.594Z,12.43
2018-10-19T00:52:40.558Z,12.38
2018-10-19T00:57:44.729Z,12.34
2018-10-19T01:02:48.707Z,12.31
2018-10-19T01:07:52.731Z,12.31
2018-10-19T01:12:58.485Z,12.29
2018-10-19T01:18:02.451Z,12.25
2018-10-19T01:23:06.549Z,12.23
2018-10-19T01:28:10.975Z,12.23
2018-10-19T01:33:15.048Z,12.17
2018-10-19T01:38:18.951Z,12.18
2018-10-19T01:43:22.941Z,12.12
2018-10-19T01:48:27.905Z,12.10
2018-10-19T01:53:31.874Z,12.10
2018-10-19T01:58:35.835Z,12.07
2018-10-19T02:03:40.902Z,12.04
2018-10-19T02:08:44.879Z,12.00
2018-10-19T02:13:48.858Z,11.96
2018-10-19T02:18:52.824Z,11.92
2018-10-19T02:23:56.834Z,11.93
2018-10-19T02:29:00.837Z,11.92
2018-10-19T02:34:05.002Z,11.89
2018-10-19T02:39:09.126Z,11.88
2018-10-19T02:44:13.050Z,11.85
2018-10-19T02:49:17.035Z,11.82
2018-10-19T02:54:21.030Z,11.80
2018-10-19T02:59:25.104Z,11.70
2018-10-19T03:04:29.099Z,11.62
2018-10-19T03:09:33.086Z,11.50
2018-10-19T03:14:37.171Z,11.49
2018-10-19T03:19:41.370Z,11.43
2018-10-19T03:24:45.503Z,11.33
2018-10-19T03:29:49.640Z,11.28
2018-10-19T03:34:53.774Z,11.22
2018-10-19T03:39:57.804Z,11.15
2018-10-19T03:45:02.001Z,11.15
2018-10-19T03:50:06.344Z,11.12
2018-10-19T03:55:10.552Z,11.10
2018-10-19T04:00:14.560Z,11.07
2018-10-19T04:05:18.633Z,11.06
2018-10-19T04:10:23.010Z,11.02
2018-10-19T04:15:27.070Z,10.97
2018-10-19T04:20:31.084Z,10.94
2018-10-19T04:25:35.612Z,10.92
2018-10-19T04:30:39.671Z,10.92
2018-10-19T04:35:43.681Z,10.91
2018-10-19T04:40:47.721Z,10.92
2018-10-19T04:45:51.815Z,10.91
2018-10-19T04:50:55.916Z,10.93
2018-10-19T04:56:00.177Z,10.94
2018-10-19T05:01:04.206Z,10.93
2018-10-19T05:06:08.322Z,10.92
2018-10-19T05:11:12.420Z,10.91
2018-10-19T05:16:16.420Z,10.87
2018-10-19T05:21:20.449Z,10.90
2018-10-19T05:26:24.670Z,10.91
2018-10-19T05:31:28.753Z,10.89
2018-10-19T05:36:32.845Z,10.89
2018-10-19T05:41:37.117Z,10.87
2018-10-19T05:46:41.131Z,10.81
2018-10-19T05:51:45.154Z,10.76
2018-10-19T05:56:49.539Z,10.75
2018-10-19T06:01:53.611Z,10.70
2018-10-19T06:06:57.622Z,10.65
2018-10-19T06:12:01.716Z,10.57
2018-10-19T06:17:06.575Z,10.41
2018-10-19T06:22:10.625Z,10.37
2018-10-19T06:27:14.756Z,10.32
2018-10-19T06:32:19.047Z,10.25
2018-10-19T06:37:23.055Z,10.09
2018-10-19T06:42:27.411Z,10.03
2018-10-19T06:47:31.429Z,10.01
2018-10-19T06:52:35.435Z,9.98
2018-10-19T06:57:39.449Z,10.00
2018-10-19T07:02:43.570Z,10.11
2018-10-19T07:07:47.620Z,10.18
2018-10-19T07:12:51.905Z,10.20
2018-10-19T07:17:55.910Z,10.30
2018-10-19T07:28:01.493Z,10.38
2018-10-19T07:33:03.922Z,10.39
2018-10-19T07:38:06.510Z,10.40
2018-10-19T07:43:08.783Z,10.46
2018-10-19T07:48:11.295Z,10.48
2018-10-19T07:53:13.494Z,10.52
2018-10-19T07:58:15.857Z,10.56
2018-10-19T08:03:18.240Z,10.52
2018-10-19T08:08:20.559Z,10.58
2018-10-19T08:13:23.105Z,10.53
2018-10-19T08:18:25.437Z,10.47
2018-10-19T08:23:27.788Z,10.48
2018-10-19T08:28:30.118Z,10.53
2018-10-19T08:33:32.606Z,10.66
2018-10-19T08:38:34.907Z,10.71
2018-10-19T08:43:37.235Z,10.70
2018-10-19T08:48:39.570Z,10.71
2018-10-19T08:53:41.924Z,10.86
2018-10-19T08:58:44.253Z,11.00
2018-10-19T09:03:46.655Z,11.00
2018-10-19T09:08:48.973Z,11.09
2018-10-19T09:13:51.394Z,11.14
2018-10-19T09:18:53.722Z,11.28
2018-10-19T09:23:56.047Z,11.33
2018-10-19T09:28:58.594Z,11.57
2018-10-19T09:34:00.982Z,11.56
2018-10-19T09:39:04.864Z,11.42
2018-10-19T09:44:07.228Z,11.20
2018-10-19T09:49:11.538Z,11.20
2018-10-19T09:54:13.841Z,11.31
2018-10-19T09:59:16.245Z,11.36
2018-10-19T10:04:18.665Z,11.47
2018-10-19T10:09:20.990Z,11.62
2018-10-19T10:14:23.311Z,11.69
2018-10-19T10:19:25.738Z,11.89
2018-10-19T10:24:28.085Z,12.10
2018-10-19T10:29:30.412Z,12.12
2018-10-19T10:34:32.863Z,12.17
2018-10-19T10:39:35.309Z,12.16
2018-10-19T10:44:37.727Z,12.23
2018-10-19T10:49:40.066Z,12.26
2018-10-19T10:54:42.390Z,12.37
2018-10-19T10:59:44.710Z,12.48
2018-10-19T11:04:47.109Z,12.42
2018-10-19T11:09:49.493Z,12.47
2018-10-19T11:14:51.826Z,12.67
2018-10-19T11:19:54.161Z,12.66
2018-10-19T11:24:56.533Z,12.69
2018-10-19T11:29:58.930Z,12.72
2018-10-19T11:35:01.370Z,12.61
2018-10-19T11:40:20.399Z,12.84
2018-10-19T11:45:23.711Z,12.91
2018-10-19T11:50:26.029Z,12.95
2018-10-19T11:55:28.374Z,12.75
2018-10-19T12:00:30.741Z,13.08
2018-10-19T12:05:33.152Z,13.20
2018-10-19T12:10:35.635Z,13.06
2018-10-19T12:15:37.932Z,13.23
2018-10-19T12:20:40.391Z,13.26
2018-10-19T12:25:42.757Z,13.25
2018-10-19T12:30:45.088Z,13.18
2018-10-19T12:35:47.542Z,13.21
2018-10-19T12:40:49.895Z,13.23
2018-10-19T12:46:38.155Z,13.17
2018-10-19T12:51:40.592Z,13.16
2018-10-19T12:56:42.947Z,13.29
2018-10-19T13:01:45.277Z,13.18
2018-10-19T13:06:47.645Z,13.33
2018-10-19T13:11:50.043Z,13.08
2018-10-19T13:16:52.362Z,13.12
2018-10-19T13:21:54.911Z,13.20
2018-10-19T13:26:57.331Z,13.17
2018-10-19T13:31:59.616Z,13.21
2018-10-19T13:37:01.997Z,13.23
2018-10-19T13:42:04.671Z,13.31
2018-10-19T13:47:07.057Z,13.34
2018-10-19T13:52:09.411Z,13.30
2018-10-19T13:57:11.762Z,13.42
2018-10-19T14:02:14.105Z,13.52
2018-10-19T14:07:16.769Z,13.44
2018-10-19T14:12:19.786Z,13.38
2018-10-19T14:17:23.252Z,13.44
2018-10-19T14:22:25.793Z,13.38
2018-10-19T14:27:28.148Z,13.32
2018-10-19T14:32:30.579Z,13.27
2018-10-19T14:37:33.048Z,13.19
2018-10-19T14:42:35.491Z,13.14
2018-10-19T14:47:38.609Z,13.13
2018-10-19T14:52:40.906Z,13.14
2018-10-19T14:57:43.236Z,13.01
2018-10-19T15:02:45.811Z,13.02
2018-10-19T15:07:49.093Z,12.94
2018-10-19T15:12:51.597Z,12.85
2018-10-19T15:17:53.947Z,12.66
2018-10-19T15:22:56.299Z,12.61
2018-10-19T15:27:58.928Z,12.59
2018-10-19T15:33:01.341Z,12.49
2018-10-19T15:38:03.751Z,12.39
2018-10-19T15:43:06.074Z,12.29
2018-10-19T15:48:08.474Z,12.20
2018-10-19T15:53:10.822Z,12.07
2018-10-19T15:58:13.337Z,12.02
2018-10-19T16:03:16.100Z,11.94
2018-10-19T16:08:18.538Z,11.84
2018-10-19T16:13:20.884Z,11.72
2018-10-19T16:18:23.234Z,11.65
2018-10-19T16:23:25.757Z,11.57
2018-10-19T16:28:28.169Z,11.46
2018-10-19T16:33:30.481Z,11.37
2018-10-19T16:38:32.857Z,11.26
2018-10-19T16:43:35.251Z,11.12
2018-10-19T16:48:37.702Z,10.98
2018-10-19T16:53:40.256Z,10.92
2018-10-19T16:58:42.665Z,10.77
2018-10-19T17:03:45.110Z,10.72
2018-10-19T17:08:47.509Z,10.68
2018-10-19T17:13:49.831Z,10.60
2018-10-19T17:18:52.306Z,10.53
2018-10-19T17:23:54.838Z,10.50
2018-10-19T17:28:57.203Z,10.40
2018-10-19T17:33:59.681Z,10.37
2018-10-19T17:39:02.111Z,10.34
2018-10-19T17:44:05.179Z,10.29
2018-10-19T17:49:07.777Z,10.25
2018-10-19T17:54:12.248Z,10.18
2018-10-19T17:59:14.926Z,10.17
2018-10-19T18:04:17.248Z,10.16
2018-10-19T18:09:19.869Z,10.18
2018-10-19T18:14:22.208Z,10.20
2018-10-19T18:19:24.547Z,10.22
2018-10-19T18:24:26.914Z,10.23
2018-10-19T18:29:29.259Z,10.21
2018-10-19T18:34:31.589Z,10.24
2018-10-19T18:39:34.088Z,10.26
2018-10-19T18:44:36.428Z,10.22
2018-10-19T18:49:39.606Z,10.13
2018-10-19T18:54:41.917Z,10.08
2018-10-19T18:59:44.308Z,10.07
2018-10-19T19:04:46.759Z,10.06
2018-10-19T19:09:54.872Z,10.06
2018-10-19T19:14:57.209Z,10.03
2018-10-19T19:20:05.219Z,10.00
2018-10-19T19:25:13.399Z,9.84
2018-10-19T19:30:16.257Z,9.69
2018-10-19T19:35:18.840Z,9.75
2018-10-19T19:40:21.904Z,9.56
2018-10-19T19:45:24.244Z,9.55
2018-10-19T19:50:26.614Z,9.56
2018-10-19T19:55:28.989Z,9.61
2018-10-19T20:00:32.462Z,9.62
2018-10-19T20:05:34.853Z,9.58
2018-10-19T20:10:37.633Z,9.59
2018-10-19T20:15:40.107Z,9.55
2018-10-19T20:20:42.440Z,9.55
2018-10-19T20:25:44.843Z,9.49
2018-10-19T20:30:47.247Z,9.43
2018-10-19T20:35:49.626Z,9.42
2018-10-19T20:40:52.320Z,9.46
2018-10-19T20:45:54.893Z,9.42
2018-10-19T20:50:57.329Z,9.41
2018-10-19T20:55:59.720Z,9.48
2018-10-19T21:01:02.231Z,9.41
2018-10-19T21:11:18.068Z,9.33
2018-10-19T21:16:20.617Z,9.29
2018-10-19T21:21:23.021Z,9.20
2018-10-19T21:26:25.492Z,9.08
2018-10-19T21:31:28.000Z,9.11
2018-10-19T21:36:30.349Z,9.15
2018-10-19T21:41:32.740Z,9.07
2018-10-19T21:46:35.126Z,9.02
2018-10-19T21:51:37.598Z,8.97
2018-10-19T21:56:39.903Z,8.79
2018-10-19T22:01:42.295Z,8.85
2018-10-19T22:06:44.616Z,8.89
2018-10-19T22:11:46.947Z,8.94
2018-10-19T22:16:49.295Z,8.98
2018-10-19T22:21:51.595Z,8.84
2018-10-19T22:26:54.045Z,8.87
2018-10-19T22:31:56.396Z,8.85
2018-10-19T22:36:58.779Z,8.91
2018-10-19T22:42:01.125Z,8.96
2018-10-19T22:47:03.562Z,8.99
2018-10-19T22:52:05.897Z,9.01
2018-10-19T22:57:08.214Z,9.03
2018-10-19T23:02:10.599Z,8.92
2018-10-19T23:07:12.963Z,8.97
2018-10-19T23:12:15.301Z,8.94
2018-10-19T23:17:17.766Z,8.91
2018-10-19T23:22:20.088Z,8.86
2018-10-19T23:27:22.449Z,8.72
2018-10-19T23:32:24.880Z,8.60
2018-10-19T23:37:27.249Z,8.49
2018-10-19T23:42:29.586Z,8.36
2018-10-19T23:47:31.951Z,8.41
2018-10-19T23:52:34.366Z,8.41
2018-10-19T23:57:36.687Z,8.41
